createdAt,value
2022-12-25T00:01:26.776Z,10.15
2022-12-25T00:03:53.876Z,9.50
2022-12-25T00:06:27.668Z,9.07
2022-12-25T00:08:54.412Z,10.07
2022-12-25T00:11:21.713Z,8.68
2022-12-25T00:13:56.707Z,8.63
2022-12-25T00:16:26.066Z,9.93
2022-12-25T00:18:54.195Z,8.77
2022-12-25T00:21:27.666Z,9.90
2022-12-25T00:23:55.816Z,10.45
2022-12-25T00:26:25.533Z,9.18
2022-12-25T00:29:03.684Z,9.02
2022-12-25T00:31:30.779Z,9.13
2022-12-25T00:34:04.859Z,9.00
2022-12-25T00:36:34.919Z,8.70
2022-12-25T00:39:13.694Z,11.00
2022-12-25T00:42:05.722Z,9.18
2022-12-25T00:44:38.711Z,8.90
2022-12-25T00:47:11.761Z,7.78
2022-12-25T00:49:39.020Z,9.32
2022-12-25T00:52:09.357Z,8.80
2022-12-25T00:54:42.731Z,8.40
2022-12-25T00:57:09.815Z,9.95
2022-12-25T00:59:36.698Z,8.32
2022-12-25T01:02:28.877Z,8.27
2022-12-25T01:04:57.154Z,8.88
2022-12-25T01:07:35.139Z,10.52
2022-12-25T01:10:20.808Z,10.60
2022-12-25T01:12:57.758Z,10.77
2022-12-25T01:15:24.556Z,10.07
2022-12-25T01:17:51.722Z,10.90
2022-12-25T01:20:24.762Z,10.13
2022-12-25T01:22:57.753Z,9.27
2022-12-25T01:25:24.479Z,9.02
2022-12-25T01:27:51.405Z,7.90
2022-12-25T01:30:24.784Z,8.60
2022-12-25T01:32:54.205Z,10.65
2022-12-25T01:35:20.989Z,10.43
2022-12-25T01:37:53.816Z,8.88
2022-12-25T01:40:26.821Z,10.65
2022-12-25T01:42:55.834Z,10.98
2022-12-25T01:45:22.710Z,9.52
2022-12-25T01:47:57.079Z,10.15
2022-12-25T01:50:24.476Z,11.07
2022-12-25T01:53:05.119Z,10.60
2022-12-25T01:55:33.873Z,9.77
2022-12-25T01:58:01.136Z,11.40
2022-12-25T02:00:34.903Z,11.30
2022-12-25T02:03:02.007Z,9.80
2022-12-25T02:05:32.175Z,11.68
2022-12-25T02:08:16.831Z,12.05
2022-12-25T02:10:44.799Z,12.23
2022-12-25T02:13:15.565Z,12.10
2022-12-25T02:16:11.931Z,11.02
2022-12-25T02:18:54.191Z,10.55
2022-12-25T02:21:52.281Z,13.95
2022-12-25T02:24:37.875Z,12.57
2022-12-25T02:27:20.873Z,10.77
2022-12-25T02:30:14.033Z,11.95
2022-12-25T02:32:51.007Z,10.27
2022-12-25T02:35:36.871Z,11.00
2022-12-25T02:38:19.175Z,11.52
2022-12-25T02:40:54.198Z,11.48
2022-12-25T02:43:59.949Z,11.00
2022-12-25T02:46:48.628Z,10.02
2022-12-25T02:49:46.893Z,9.35
2022-12-25T02:52:40.565Z,8.98
2022-12-25T02:55:45.038Z,9.98
2022-12-25T02:58:38.386Z,9.23
2022-12-25T03:01:38.166Z,8.93
2022-12-25T03:04:31.702Z,8.73
2022-12-25T03:07:17.990Z,9.45
2022-12-25T03:10:16.100Z,9.15
2022-12-25T03:13:17.945Z,8.90
2022-12-25T03:16:04.296Z,10.90
2022-12-25T03:18:39.008Z,11.63
2022-12-25T03:21:30.945Z,10.40
2022-12-25T03:24:20.269Z,10.45
2022-12-25T03:27:03.026Z,11.25
2022-12-25T03:29:51.850Z,11.82
2022-12-25T03:32:51.988Z,11.23
2022-12-25T03:35:45.435Z,12.35
2022-12-25T03:38:56.009Z,10.85
2022-12-25T03:42:14.023Z,12.07
2022-12-25T03:45:30.985Z,11.27
2022-12-25T03:48:12.779Z,9.63
2022-12-25T03:51:23.000Z,8.20
2022-12-25T03:54:29.124Z,7.68
2022-12-25T03:57:15.181Z,8.10
2022-12-25T04:00:07.052Z,7.38
2022-12-25T04:02:52.939Z,6.87
2022-12-25T04:05:45.044Z,7.78
2022-12-25T04:08:30.641Z,6.72
2022-12-25T04:11:22.020Z,6.95
2022-12-25T04:14:07.897Z,7.63
2022-12-25T04:17:00.031Z,6.68
2022-12-25T04:19:45.470Z,7.47
2022-12-25T04:22:38.085Z,9.10
2022-12-25T04:25:30.598Z,7.85
2022-12-25T04:28:29.032Z,8.25
2022-12-25T04:31:26.158Z,6.95
2022-12-25T04:34:18.104Z,7.35
2022-12-25T04:36:44.983Z,8.13
2022-12-25T04:39:11.779Z,7.57
2022-12-25T04:41:45.142Z,7.75
2022-12-25T04:44:11.993Z,7.38
2022-12-25T04:46:38.844Z,6.57
2022-12-25T04:49:12.143Z,7.63
2022-12-25T04:51:38.869Z,7.50
2022-12-25T04:54:14.106Z,7.82
2022-12-25T04:56:45.568Z,6.57
2022-12-25T04:59:12.888Z,6.43
2022-12-25T05:01:46.238Z,7.30
2022-12-25T05:04:20.094Z,6.47
2022-12-25T05:06:46.876Z,5.97
2022-12-25T05:09:20.107Z,7.03
2022-12-25T05:11:46.925Z,6.55
2022-12-25T05:14:13.701Z,6.68
2022-12-25T05:16:47.165Z,6.00
2022-12-25T05:19:14.491Z,5.25
2022-12-25T05:21:41.379Z,6.03
2022-12-25T05:24:16.408Z,5.95
2022-12-25T05:26:43.180Z,4.90
2022-12-25T05:29:10.011Z,6.05
2022-12-25T05:31:43.435Z,5.70
2022-12-25T05:34:10.337Z,5.30
2022-12-25T05:36:37.115Z,4.40
2022-12-25T05:39:10.203Z,4.00
2022-12-25T05:41:43.219Z,4.18
2022-12-25T05:44:15.141Z,4.10
2022-12-25T05:46:42.170Z,5.18
2022-12-25T05:49:16.318Z,5.30
2022-12-25T05:51:43.110Z,5.13
2022-12-25T05:54:09.881Z,3.90
2022-12-25T05:56:44.461Z,4.43
2022-12-25T05:59:11.183Z,4.10
2022-12-25T06:01:38.059Z,3.90
2022-12-25T06:04:13.025Z,4.03
2022-12-25T06:06:43.823Z,3.90
2022-12-25T06:09:20.206Z,3.83
2022-12-25T06:11:46.978Z,3.60
2022-12-25T06:14:15.367Z,4.72
2022-12-25T06:16:49.365Z,3.75
2022-12-25T06:19:16.177Z,4.32
2022-12-25T06:21:49.245Z,4.22
2022-12-25T06:24:21.018Z,4.28
2022-12-25T06:26:48.944Z,4.13
2022-12-25T06:29:22.218Z,4.60
2022-12-25T06:31:49.712Z,4.20
2022-12-25T06:34:16.624Z,5.18
2022-12-25T06:36:50.580Z,4.78
2022-12-25T06:39:17.509Z,5.25
2022-12-25T06:41:44.414Z,5.78
2022-12-25T06:44:17.459Z,5.57
2022-12-25T06:46:44.287Z,5.28
2022-12-25T06:49:18.572Z,4.90
2022-12-25T06:51:45.437Z,4.60
2022-12-25T06:54:12.289Z,5.10
2022-12-25T06:56:45.334Z,4.75
2022-12-25T06:59:23.325Z,4.45
2022-12-25T07:02:02.461Z,4.47
2022-12-25T07:04:33.191Z,4.28
2022-12-25T07:07:06.115Z,4.82
2022-12-25T07:09:42.413Z,4.05
2022-12-25T07:12:18.857Z,3.85
2022-12-25T07:14:55.580Z,4.18
2022-12-25T07:17:23.815Z,3.95
2022-12-25T07:19:50.931Z,3.90
2022-12-25T07:22:24.337Z,3.88
2022-12-25T07:24:51.265Z,4.28
2022-12-25T07:27:18.156Z,4.00
2022-12-25T07:29:52.652Z,3.53
2022-12-25T07:32:25.330Z,3.20
2022-12-25T07:34:52.136Z,3.30
2022-12-25T07:37:25.376Z,3.30
2022-12-25T07:39:58.462Z,3.08
2022-12-25T07:42:25.628Z,2.60
2022-12-25T07:44:52.572Z,3.10
2022-12-25T07:47:26.826Z,2.70
2022-12-25T07:49:53.715Z,3.35
2022-12-25T07:52:20.593Z,3.80
2022-12-25T07:54:54.394Z,3.10
2022-12-25T07:57:21.173Z,3.63
2022-12-25T07:59:47.999Z,3.72
2022-12-25T08:02:21.642Z,3.55
2022-12-25T08:04:55.400Z,4.13
2022-12-25T08:07:30.159Z,4.65
2022-12-25T08:10:03.545Z,5.50
2022-12-25T08:12:30.426Z,5.30
2022-12-25T08:14:57.199Z,6.60
2022-12-25T08:17:35.416Z,5.53
2022-12-25T08:20:02.294Z,6.18
2022-12-25T08:22:35.397Z,5.60
2022-12-25T08:25:08.734Z,6.28
2022-12-25T08:27:40.954Z,5.07
2022-12-25T08:30:15.438Z,4.47
2022-12-25T08:32:50.422Z,4.55
2022-12-25T08:35:17.309Z,5.43
2022-12-25T08:37:44.074Z,4.32
2022-12-25T08:40:18.451Z,4.95
2022-12-25T08:42:49.211Z,4.72
2022-12-25T08:45:16.023Z,4.90
2022-12-25T08:47:59.438Z,4.47
2022-12-25T08:50:32.772Z,4.90
2022-12-25T08:53:00.138Z,4.43
2022-12-25T08:55:27.111Z,4.50
2022-12-25T08:58:00.599Z,4.55
2022-12-25T09:00:27.322Z,3.85
2022-12-25T09:03:10.880Z,4.25
2022-12-25T09:05:38.213Z,4.38
2022-12-25T09:08:18.529Z,3.95
2022-12-25T09:10:45.542Z,3.88
2022-12-25T09:13:25.533Z,4.50
2022-12-25T09:16:01.121Z,4.22
2022-12-25T09:18:28.108Z,3.72
2022-12-25T09:21:10.531Z,4.03
2022-12-25T09:26:14.195Z,4.97
2022-12-25T09:28:46.650Z,4.35
2022-12-25T09:31:29.590Z,4.55
2022-12-25T09:33:59.234Z,3.92
2022-12-25T09:36:32.571Z,4.07
2022-12-25T09:38:59.359Z,3.55
2022-12-25T09:41:40.620Z,3.45
2022-12-25T09:44:13.561Z,3.47
2022-12-25T09:47:10.579Z,3.47
2022-12-25T09:50:11.610Z,3.90
2022-12-25T09:52:59.872Z,3.55
2022-12-25T09:55:31.088Z,3.55
2022-12-25T09:58:07.671Z,3.45
2022-12-25T10:00:54.055Z,3.80
2022-12-25T10:03:51.674Z,2.83
2022-12-25T10:06:24.383Z,4.28
2022-12-25T10:09:27.597Z,4.40
2022-12-25T10:12:07.459Z,4.18
2022-12-25T10:14:46.787Z,4.35
2022-12-25T10:17:37.802Z,4.22
2022-12-25T10:20:46.790Z,4.28
2022-12-25T10:23:22.483Z,4.32
2022-12-25T10:25:56.613Z,3.30
2022-12-25T10:28:26.206Z,3.25
2022-12-25T10:30:55.446Z,3.90
2022-12-25T10:33:28.651Z,3.80
2022-12-25T10:35:56.052Z,3.67
2022-12-25T10:38:29.913Z,3.20
2022-12-25T10:41:34.349Z,3.40
2022-12-25T10:44:18.947Z,3.80
2022-12-25T10:46:53.404Z,3.60
2022-12-25T10:49:29.945Z,3.88
2022-12-25T10:51:56.811Z,3.38
2022-12-25T10:54:42.953Z,3.40
2022-12-25T10:57:21.625Z,2.92
2022-12-25T11:00:03.948Z,3.10
2022-12-25T11:02:40.168Z,4.38
2022-12-25T11:05:18.764Z,3.88
2022-12-25T11:07:51.272Z,4.18
2022-12-25T11:10:31.026Z,6.80
2022-12-25T11:13:00.234Z,4.10
2022-12-25T11:15:49.929Z,6.22
2022-12-25T11:18:22.786Z,5.32
2022-12-25T11:23:30.646Z,7.63
2022-12-25T11:26:11.686Z,7.45
2022-12-25T11:28:41.321Z,6.03
2022-12-25T11:31:20.815Z,6.25
2022-12-25T11:33:57.078Z,5.82
2022-12-25T11:36:54.004Z,5.95
2022-12-25T11:39:36.213Z,4.28
2022-12-25T11:42:27.842Z,6.65
2022-12-25T11:45:14.479Z,5.95
2022-12-25T11:47:52.755Z,5.57
2022-12-25T11:50:38.063Z,3.92
2022-12-25T11:53:21.734Z,3.90
2022-12-25T11:55:56.878Z,3.90
2022-12-25T11:58:42.828Z,3.50
2022-12-25T12:01:27.526Z,3.30
2022-12-25T12:04:01.973Z,3.13
2022-12-25T12:06:56.874Z,4.28
2022-12-25T12:10:06.132Z,3.33
2022-12-25T12:12:55.986Z,3.17
2022-12-25T12:15:29.805Z,3.88
2022-12-25T12:18:09.660Z,3.30
2022-12-25T12:20:44.139Z,4.50
2022-12-25T12:23:16.658Z,3.72
2022-12-25T12:25:51.853Z,3.33
2022-12-25T12:28:25.149Z,3.53
2022-12-25T12:31:08.832Z,2.92
2022-12-25T12:34:02.896Z,3.55
2022-12-25T12:36:37.161Z,3.10
2022-12-25T12:39:05.963Z,2.95
2022-12-25T12:41:52.882Z,3.05
2022-12-25T12:44:29.088Z,3.00
2022-12-25T12:46:57.704Z,2.50
2022-12-25T12:49:36.813Z,3.10
2022-12-25T12:52:06.756Z,3.20
2022-12-25T12:54:39.834Z,4.47
2022-12-25T12:57:23.325Z,5.38
2022-12-25T12:59:56.878Z,5.22
2022-12-25T13:02:52.760Z,5.68
2022-12-25T13:05:42.879Z,4.93
2022-12-25T13:08:26.488Z,5.40
2022-12-25T13:11:15.898Z,5.18
2022-12-25T13:13:45.505Z,4.93
2022-12-25T13:16:26.991Z,4.47
2022-12-25T13:18:55.576Z,4.43
2022-12-25T13:21:33.022Z,4.03
2022-12-25T13:24:02.938Z,5.10
2022-12-25T13:26:30.656Z,4.55
2022-12-25T13:29:10.998Z,4.05
2022-12-25T13:31:41.113Z,4.63
2022-12-25T13:34:38.939Z,4.50
2022-12-25T13:37:18.301Z,5.75
2022-12-25T13:40:14.215Z,6.65
2022-12-25T13:42:45.985Z,6.47
2022-12-25T13:45:12.712Z,6.15
2022-12-25T13:47:54.894Z,5.28
2022-12-25T13:50:37.176Z,6.20
2022-12-25T13:53:12.799Z,5.70
2022-12-25T13:55:48.280Z,6.03
2022-12-25T13:58:35.055Z,5.45
2022-12-25T14:01:10.225Z,5.30
2022-12-25T14:03:41.545Z,4.40
2022-12-25T14:06:35.996Z,4.27
2022-12-25T14:09:06.159Z,4.93
2022-12-25T14:11:33.177Z,4.40
2022-12-25T14:14:11.001Z,4.60
2022-12-25T14:16:46.967Z,4.13
2022-12-25T14:20:03.803Z,4.53
2022-12-25T14:22:41.426Z,4.50
2022-12-25T14:25:21.985Z,4.50
2022-12-25T14:27:52.623Z,4.45
2022-12-25T14:30:26.270Z,4.60
2022-12-25T14:32:55.896Z,4.28
2022-12-25T14:35:24.015Z,4.70
2022-12-25T14:38:07.112Z,5.40
2022-12-25T14:40:36.026Z,5.88
2022-12-25T14:43:30.038Z,4.55
2022-12-25T14:45:59.977Z,4.50
2022-12-25T14:48:29.527Z,4.25
2022-12-25T14:51:08.010Z,3.80
2022-12-25T14:53:46.329Z,4.32
2022-12-25T14:56:19.943Z,3.92
2022-12-25T14:59:02.346Z,4.03
2022-12-25T15:01:39.145Z,3.70
2022-12-25T15:04:18.020Z,3.88
2022-12-25T15:06:59.946Z,4.57
2022-12-25T15:09:36.243Z,3.42
2022-12-25T15:12:03.696Z,4.03
2022-12-25T15:14:31.638Z,4.60
2022-12-25T15:17:08.084Z,5.28
2022-12-25T15:19:45.078Z,4.88
2022-12-25T15:22:20.141Z,5.20
2022-12-25T15:24:46.907Z,5.07
2022-12-25T15:27:25.267Z,5.05
2022-12-25T15:30:11.080Z,5.35
2022-12-25T15:32:45.160Z,4.75
2022-12-25T15:35:21.316Z,4.38
2022-12-25T15:37:55.196Z,5.18
2022-12-25T15:40:28.129Z,4.95
2022-12-25T15:42:56.571Z,5.10
2022-12-25T15:45:33.178Z,4.70
2022-12-25T15:47:59.956Z,4.75
2022-12-25T15:50:26.736Z,4.75
2022-12-25T15:53:00.187Z,4.45
2022-12-25T15:55:33.138Z,4.13
2022-12-25T15:58:06.136Z,4.55
2022-12-25T16:00:39.166Z,3.75
2022-12-25T16:03:12.292Z,4.50
2022-12-25T16:05:39.524Z,5.18
2022-12-25T16:08:13.145Z,6.07
2022-12-25T16:10:46.188Z,4.90
2022-12-25T16:13:13.438Z,5.30
2022-12-25T16:15:47.273Z,5.72
2022-12-25T16:18:21.178Z,5.82
2022-12-25T16:20:54.174Z,5.20
2022-12-25T16:23:28.214Z,5.15
2022-12-25T16:26:02.170Z,4.38
2022-12-25T16:28:36.266Z,5.63
2022-12-25T16:31:03.161Z,4.32
2022-12-25T16:33:35.671Z,4.30
2022-12-25T16:36:09.205Z,3.50
2022-12-25T16:38:49.191Z,4.70
2022-12-25T16:41:23.211Z,4.03
2022-12-25T16:43:50.290Z,4.20
2022-12-25T16:46:26.338Z,4.53
2022-12-25T16:48:53.361Z,4.43
2022-12-25T16:51:28.239Z,4.90
2022-12-25T16:53:55.577Z,3.95
2022-12-25T16:56:34.239Z,4.32
2022-12-25T16:59:01.135Z,4.75
2022-12-25T17:01:34.374Z,4.15
2022-12-25T17:04:01.559Z,5.70
2022-12-25T17:06:35.248Z,4.68
2022-12-25T17:09:09.298Z,4.75
2022-12-25T17:11:44.267Z,4.72
2022-12-25T17:14:31.263Z,4.72
2022-12-25T17:17:04.252Z,3.92
2022-12-25T17:19:31.289Z,3.65
2022-12-25T17:22:06.318Z,4.00
2022-12-25T17:24:36.163Z,4.35
2022-12-25T17:27:10.269Z,4.40
2022-12-25T17:29:39.864Z,4.50
2022-12-25T17:32:19.295Z,4.72
2022-12-25T17:34:48.153Z,4.70
2022-12-25T17:37:21.276Z,5.00
2022-12-25T17:39:48.141Z,5.63
2022-12-25T17:42:21.283Z,6.10
2022-12-25T17:44:54.310Z,5.47
2022-12-25T17:47:31.137Z,4.60
2022-12-25T17:50:04.300Z,5.15
2022-12-25T17:52:37.347Z,4.88
2022-12-25T17:55:11.326Z,4.63
2022-12-25T17:57:41.035Z,4.45
2022-12-25T18:00:19.336Z,4.88
2022-12-25T18:02:47.410Z,4.78
2022-12-25T18:05:21.360Z,4.97
2022-12-25T18:07:48.212Z,4.40
2022-12-25T18:10:22.446Z,4.15
2022-12-25T18:12:56.432Z,4.97
2022-12-25T18:15:23.188Z,4.00
2022-12-25T18:17:56.361Z,4.20
2022-12-25T18:20:23.174Z,4.53
2022-12-25T18:22:59.379Z,5.00
2022-12-25T18:25:27.013Z,4.82
2022-12-25T18:27:53.886Z,7.20
2022-12-25T18:30:27.376Z,7.78
2022-12-25T18:33:02.542Z,7.15
2022-12-25T18:35:36.419Z,7.40
2022-12-25T18:38:03.293Z,6.25
2022-12-25T18:40:30.133Z,7.05
2022-12-25T18:43:05.416Z,10.80
2022-12-25T18:45:32.236Z,9.40
2022-12-25T18:48:09.411Z,9.27
2022-12-25T18:50:38.936Z,9.55
2022-12-25T18:53:19.417Z,8.40
2022-12-25T18:55:46.224Z,7.60
2022-12-25T18:58:19.413Z,11.27
2022-12-25T19:00:46.401Z,12.57
2022-12-25T19:03:20.525Z,12.77
2022-12-25T19:05:47.750Z,11.73
2022-12-25T19:08:21.468Z,11.43
2022-12-25T19:10:48.237Z,9.90
2022-12-25T19:13:21.436Z,9.52
2022-12-25T19:15:54.516Z,15.40
2022-12-25T19:18:21.271Z,13.90
2022-12-25T19:20:54.559Z,12.50
2022-12-25T19:23:21.398Z,13.02
2022-12-25T19:25:56.557Z,11.48
2022-12-25T19:28:25.398Z,13.32
2022-12-25T19:30:54.091Z,15.20
2022-12-25T19:33:28.499Z,13.98
2022-12-25T19:36:00.561Z,13.70
2022-12-25T19:38:27.538Z,13.50
2022-12-25T19:41:06.475Z,12.27
2022-12-25T19:43:38.596Z,12.25
2022-12-25T19:46:13.573Z,13.18
2022-12-25T19:48:47.510Z,13.25
2022-12-25T19:51:27.507Z,15.35
2022-12-25T19:53:56.274Z,13.95
2022-12-25T19:56:30.476Z,12.70
2022-12-25T19:58:58.260Z,12.57
2022-12-25T20:01:33.650Z,10.90
2022-12-25T20:04:07.530Z,10.27
2022-12-25T20:06:41.540Z,8.65
2022-12-25T20:09:11.678Z,8.73
2022-12-25T20:11:45.595Z,8.15
2022-12-25T20:14:20.592Z,8.63
2022-12-25T20:16:53.624Z,8.80
2022-12-25T20:19:20.489Z,8.48
2022-12-25T20:21:47.226Z,8.32
2022-12-25T20:24:20.602Z,9.30
2022-12-25T20:26:48.268Z,12.35
2022-12-25T20:29:15.995Z,12.40
2022-12-25T20:31:49.682Z,16.90
2022-12-25T20:34:23.697Z,11.90
2022-12-25T20:36:57.197Z,13.52
2022-12-25T20:39:30.591Z,16.23
2022-12-25T20:42:03.615Z,16.00
2022-12-25T20:44:30.475Z,19.08
2022-12-25T20:47:07.608Z,18.65
2022-12-25T20:49:34.727Z,17.00
2022-12-25T20:52:07.618Z,15.95
2022-12-25T20:54:34.812Z,18.48
2022-12-25T20:57:08.642Z,20.20
2022-12-25T20:59:42.603Z,18.90
2022-12-25T21:02:35.474Z,20.98
2022-12-25T21:05:05.689Z,19.33
2022-12-25T21:07:32.634Z,18.67
2022-12-25T21:10:06.623Z,17.95
2022-12-25T21:12:34.555Z,18.88
2022-12-25T21:15:13.349Z,19.20
2022-12-25T21:17:44.066Z,21.50
2022-12-25T21:20:17.651Z,19.70
2022-12-25T21:22:44.502Z,19.63
2022-12-25T21:25:17.665Z,18.75
2022-12-25T21:27:44.411Z,20.23
2022-12-25T21:30:17.708Z,18.05
2022-12-25T21:33:09.664Z,22.58
2022-12-25T21:35:37.779Z,21.90
2022-12-25T21:38:11.655Z,22.20
2022-12-25T21:40:39.264Z,22.73
2022-12-25T21:43:13.756Z,22.23
2022-12-25T21:45:40.627Z,22.35
2022-12-25T21:48:31.747Z,21.17
2022-12-25T21:51:27.608Z,19.85
2022-12-25T21:54:00.684Z,19.15
2022-12-25T21:56:29.972Z,18.80
2022-12-25T21:59:05.713Z,19.83
2022-12-25T22:01:39.845Z,20.73
2022-12-25T22:04:09.956Z,20.40
2022-12-25T22:07:01.699Z,22.50
2022-12-25T22:09:29.486Z,20.92
2022-12-25T22:12:21.792Z,21.63
2022-12-25T22:14:57.088Z,21.05
2022-12-25T22:17:53.761Z,18.10
2022-12-25T22:20:37.732Z,19.13
2022-12-25T22:23:05.099Z,18.35
2022-12-25T22:25:38.724Z,19.08
2022-12-25T22:28:11.778Z,19.13
2022-12-25T22:30:38.642Z,19.90
2022-12-25T22:33:12.835Z,17.77
2022-12-25T22:35:39.643Z,17.15
2022-12-25T22:38:12.878Z,17.25
2022-12-25T22:40:45.763Z,17.10
2022-12-25T22:43:12.607Z,16.00
2022-12-25T22:45:39.433Z,16.48
2022-12-25T22:48:12.763Z,15.50
2022-12-25T22:50:39.504Z,14.75
2022-12-25T22:53:12.758Z,15.18
2022-12-25T22:55:45.793Z,16.88
2022-12-25T22:58:20.518Z,15.77
2022-12-25T23:00:53.794Z,14.30
2022-12-25T23:03:25.293Z,15.70
2022-12-25T23:06:02.790Z,14.07
2022-12-25T23:08:36.840Z,13.73
2022-12-25T23:11:05.284Z,13.82
2022-12-25T23:13:56.837Z,14.77
2022-12-25T23:16:24.020Z,16.17
2022-12-25T23:19:16.825Z,14.05
2022-12-25T23:24:54.184Z,17.05
2022-12-25T23:27:27.836Z,17.25
2022-12-25T23:30:00.882Z,17.30
2022-12-25T23:32:34.924Z,16.42
2022-12-25T23:35:01.784Z,15.68
2022-12-25T23:37:34.835Z,16.85
2022-12-25T23:40:01.688Z,16.55
2022-12-25T23:42:28.791Z,15.50
2022-12-25T23:45:01.883Z,16.17
2022-12-25T23:47:28.771Z,16.38
2022-12-25T23:50:01.880Z,15.55
2022-12-25T23:52:28.630Z,15.20
2022-12-25T23:54:55.375Z,17.13
2022-12-25T23:57:28.875Z,16.67
2022-12-25T23:59:55.660Z,17.38
